createdAt,value
2023-04-17T00:00:43.285Z,101862.91
2023-04-17T00:03:12.018Z,101863.25
2023-04-17T00:05:39.892Z,101872.19
2023-04-17T00:08:07.902Z,101868.28
2023-04-17T00:10:35.586Z,101868.31
2023-04-17T00:13:03.321Z,101869.28
2023-04-17T00:15:31.234Z,101860.34
2023-04-17T00:18:00.389Z,101862.56
2023-04-17T00:20:28.298Z,101862.13
2023-04-17T00:22:56.105Z,101872.75
2023-04-17T00:25:24.132Z,101868.47
2023-04-17T00:27:51.828Z,101869.66
2023-04-17T00:30:19.668Z,101870.13
2023-04-17T00:32:47.374Z,101867.81
2023-04-17T00:35:16.921Z,101881.16
2023-04-17T00:37:44.700Z,101873.09
2023-04-17T00:40:13.516Z,101869.84
2023-04-17T00:42:41.229Z,101873.47
2023-04-17T00:45:10.955Z,101874.03
2023-04-17T00:47:38.852Z,101865.03
2023-04-17T00:50:07.702Z,101867.31
2023-04-17T00:52:36.784Z,101868.81
2023-04-17T00:55:04.854Z,101875.81
2023-04-17T00:57:32.618Z,101869.16
2023-04-17T01:00:00.380Z,101864.31
2023-04-17T01:02:28.293Z,101879.50
2023-04-17T01:04:56.147Z,101868.28
2023-04-17T01:07:23.897Z,101873.38
2023-04-17T01:09:52.977Z,101868.13
2023-04-17T01:12:21.821Z,101865.16
2023-04-17T01:14:51.057Z,101859.72
2023-04-17T01:17:20.414Z,101868.84
2023-04-17T01:19:48.508Z,101871.91
2023-04-17T01:22:17.367Z,101871.28
2023-04-17T01:24:46.718Z,101864.19
2023-04-17T01:27:15.394Z,101868.03
2023-04-17T01:29:44.058Z,101872.53
2023-04-17T01:32:11.795Z,101860.81
2023-04-17T01:34:39.637Z,101885.47
2023-04-17T01:37:07.566Z,101869.66
2023-04-17T01:39:35.526Z,101875.84
2023-04-17T01:42:04.966Z,101872.06
2023-04-17T01:44:32.676Z,101878.44
2023-04-17T01:47:00.367Z,101882.00
2023-04-17T01:49:28.443Z,101876.91
2023-04-17T01:51:56.150Z,101883.25
2023-04-17T01:54:24.962Z,101891.66
2023-04-17T01:56:53.080Z,101892.69
2023-04-17T01:59:22.163Z,101890.09
2023-04-17T02:01:50.729Z,101894.50
2023-04-17T02:04:18.605Z,101893.75
2023-04-17T02:06:46.374Z,101897.09
2023-04-17T02:09:14.086Z,101897.69
2023-04-17T02:11:41.817Z,101896.75
2023-04-17T02:14:09.526Z,101896.22
2023-04-17T02:16:39.981Z,101902.94
2023-04-17T02:19:07.779Z,101899.06
2023-04-17T02:21:35.458Z,101903.31
2023-04-17T02:24:03.199Z,101905.31
2023-04-17T02:26:30.899Z,101895.47
2023-04-17T02:28:58.656Z,101905.81
2023-04-17T02:31:26.510Z,101899.06
2023-04-17T02:33:55.725Z,101912.25
2023-04-17T02:36:23.443Z,101907.00
2023-04-17T02:38:51.286Z,101896.53
2023-04-17T02:41:19.024Z,101908.00
2023-04-17T02:43:46.989Z,101905.94
2023-04-17T02:46:14.809Z,101898.03
2023-04-17T02:48:42.617Z,101912.94
2023-04-17T02:51:11.814Z,101901.56
2023-04-17T02:53:39.517Z,101907.72
2023-04-17T02:56:07.621Z,101909.47
2023-04-17T02:58:35.425Z,101900.75
2023-04-17T03:01:03.932Z,101911.72
2023-04-17T03:03:35.017Z,101904.09
2023-04-17T03:06:03.935Z,101906.78
2023-04-17T03:08:35.506Z,101905.94
2023-04-17T03:11:03.581Z,101907.31
2023-04-17T03:13:31.499Z,101897.75
2023-04-17T03:16:00.347Z,101916.84
2023-04-17T03:18:28.068Z,101908.63
2023-04-17T03:20:55.745Z,101916.66
2023-04-17T03:23:23.499Z,101927.22
2023-04-17T03:25:52.767Z,101920.22
2023-04-17T03:28:22.006Z,101916.84
2023-04-17T03:30:50.334Z,101927.44
2023-04-17T03:33:18.103Z,101920.34
2023-04-17T03:35:46.703Z,101928.88
2023-04-17T03:38:14.524Z,101911.91
2023-04-17T03:40:42.339Z,101918.75
2023-04-17T03:43:11.405Z,101913.31
2023-04-17T03:45:39.152Z,101926.81
2023-04-17T03:48:07.378Z,101915.50
2023-04-17T03:50:35.335Z,101920.91
2023-04-17T03:53:03.125Z,101916.66
2023-04-17T03:55:30.879Z,101911.63
2023-04-17T03:57:58.573Z,101912.78
2023-04-17T04:00:28.566Z,101910.91
2023-04-17T04:02:56.445Z,101922.69
2023-04-17T04:05:24.656Z,101917.88
2023-04-17T04:07:52.576Z,101922.34
2023-04-17T04:10:20.234Z,101926.44
2023-04-17T04:12:47.974Z,101923.44
2023-04-17T04:15:15.720Z,101910.22
2023-04-17T04:17:44.930Z,101917.47
2023-04-17T04:20:12.694Z,101932.69
2023-04-17T04:22:41.657Z,101927.53
2023-04-17T04:25:09.830Z,101928.72
2023-04-17T04:27:37.787Z,101918.47
2023-04-17T04:30:06.540Z,101922.28
2023-04-17T04:32:34.326Z,101924.31
2023-04-17T04:35:03.376Z,101927.91
2023-04-17T04:37:32.346Z,101911.94
2023-04-17T04:40:10.378Z,101927.38
2023-04-17T04:42:38.222Z,101943.56
2023-04-17T04:45:06.963Z,101936.38
2023-04-17T04:47:34.643Z,101927.66
2023-04-17T04:50:03.802Z,101937.78
2023-04-17T04:52:31.526Z,101940.19
2023-04-17T04:54:59.197Z,101939.00
2023-04-17T04:57:27.089Z,101947.94
2023-04-17T04:59:54.783Z,101941.94
2023-04-17T05:02:22.676Z,101961.34
2023-04-17T05:04:50.841Z,101944.81
2023-04-17T05:07:19.970Z,101954.28
2023-04-17T05:09:47.752Z,101947.41
2023-04-17T05:12:15.412Z,101950.38
2023-04-17T05:14:43.148Z,101967.53
2023-04-17T05:17:10.856Z,101955.25
2023-04-17T05:19:38.516Z,101966.66
2023-04-17T05:22:06.204Z,101959.59
2023-04-17T05:24:35.333Z,101979.47
2023-04-17T05:27:03.053Z,101959.91
2023-04-17T05:29:32.703Z,101963.84
2023-04-17T05:32:00.742Z,101983.47
2023-04-17T05:34:28.510Z,101975.66
2023-04-17T05:36:56.541Z,101995.06
2023-04-17T05:39:24.302Z,101981.59
2023-04-17T05:41:53.389Z,101989.44
2023-04-17T05:44:21.149Z,101997.81
2023-04-17T05:46:48.873Z,101988.00
2023-04-17T05:49:17.008Z,101978.97
2023-04-17T05:51:44.874Z,101978.41
2023-04-17T05:54:12.542Z,101983.75
2023-04-17T05:56:40.309Z,101993.38
2023-04-17T05:59:09.376Z,102005.59
2023-04-17T06:01:37.435Z,101996.34
2023-04-17T06:04:05.855Z,101991.97
2023-04-17T06:06:33.772Z,102005.41
2023-04-17T06:09:01.539Z,102010.59
2023-04-17T06:11:29.323Z,102001.59
2023-04-17T06:13:57.018Z,102005.97
2023-04-17T06:16:26.632Z,102008.84
2023-04-17T06:18:54.396Z,102005.81
2023-04-17T06:21:22.282Z,102009.16
2023-04-17T06:23:50.013Z,102017.16
2023-04-17T06:26:17.870Z,102017.69
2023-04-17T06:28:45.596Z,102018.59
2023-04-17T06:31:13.368Z,102030.16
2023-04-17T06:33:42.493Z,102023.69
2023-04-17T06:36:10.558Z,102038.00
2023-04-17T06:38:38.218Z,102017.72
2023-04-17T06:41:06.272Z,102027.34
2023-04-17T06:43:34.118Z,102040.69
2023-04-17T06:46:02.037Z,102035.84
2023-04-17T06:48:29.770Z,102032.31
2023-04-17T06:50:58.839Z,102050.06
2023-04-17T06:53:27.196Z,102050.44
2023-04-17T06:55:55.664Z,102035.09
2023-04-17T06:58:23.491Z,102038.91
2023-04-17T07:00:51.208Z,102036.88
2023-04-17T07:03:19.077Z,102026.31
2023-04-17T07:05:46.900Z,102038.84
2023-04-17T07:08:18.381Z,102042.84
2023-04-17T07:10:46.400Z,102041.75
2023-04-17T07:13:14.190Z,102043.81
2023-04-17T07:15:42.089Z,102039.81
2023-04-17T07:18:09.906Z,102031.97
2023-04-17T07:20:37.938Z,102051.00
2023-04-17T07:23:05.730Z,102047.53
2023-04-17T07:25:34.738Z,102059.13
2023-04-17T07:28:04.377Z,102046.94
2023-04-17T07:30:32.493Z,102051.19
2023-04-17T07:33:00.419Z,102054.81
2023-04-17T07:35:28.256Z,102069.66
2023-04-17T07:37:59.093Z,102063.94
2023-04-17T07:40:26.974Z,102061.00
2023-04-17T07:42:56.769Z,102084.53
2023-04-17T07:45:26.518Z,102070.38
2023-04-17T07:47:54.353Z,102081.22
2023-04-17T07:50:22.367Z,102065.59
2023-04-17T07:52:50.080Z,102076.06
2023-04-17T07:55:17.983Z,102074.72
2023-04-17T07:57:46.630Z,102080.31
2023-04-17T08:00:16.470Z,102082.88
2023-04-17T08:02:44.732Z,102083.44
2023-04-17T08:05:12.588Z,102097.34
2023-04-17T08:07:41.243Z,102093.72
2023-04-17T08:10:09.641Z,102081.28
2023-04-17T08:12:37.413Z,102093.44
2023-04-17T08:15:05.964Z,102082.56
2023-04-17T08:17:35.477Z,102094.56
2023-04-17T08:20:07.795Z,102091.66
2023-04-17T08:22:39.817Z,102095.56
2023-04-17T08:25:09.412Z,102104.34
2023-04-17T08:27:37.306Z,102096.91
2023-04-17T08:30:05.495Z,102103.34
2023-04-17T08:32:40.188Z,102093.88
2023-04-17T08:35:09.859Z,102104.47
2023-04-17T08:37:37.613Z,102110.56
2023-04-17T08:40:07.624Z,102095.25
2023-04-17T08:42:36.712Z,102096.28
2023-04-17T08:45:06.237Z,102105.81
2023-04-17T08:47:34.308Z,102092.41
2023-04-17T08:50:08.942Z,102115.81
2023-04-17T08:52:40.512Z,102121.00
2023-04-17T08:55:08.996Z,102124.28
2023-04-17T08:57:38.655Z,102109.44
2023-04-17T09:00:12.170Z,102091.09
2023-04-17T09:02:54.010Z,102085.28
2023-04-17T09:05:24.285Z,102102.13
2023-04-17T09:07:53.248Z,102095.75
2023-04-17T09:10:20.999Z,102113.97
2023-04-17T09:13:01.225Z,102093.53
2023-04-17T09:15:29.103Z,102100.72
2023-04-17T09:17:56.833Z,102096.69
2023-04-17T09:20:26.566Z,102111.66
2023-04-17T09:23:01.840Z,102103.78
2023-04-17T09:25:30.088Z,102097.63
2023-04-17T09:28:11.657Z,102105.34
2023-04-17T09:30:40.083Z,102103.19
2023-04-17T09:33:09.576Z,102095.97
2023-04-17T09:35:40.210Z,102106.94
2023-04-17T09:38:08.060Z,102097.44
2023-04-17T09:40:40.690Z,102106.13
2023-04-17T09:43:10.028Z,102107.53
2023-04-17T09:45:41.595Z,102104.97
2023-04-17T09:48:11.973Z,102122.94
2023-04-17T09:50:41.221Z,102127.16
2023-04-17T09:53:09.372Z,102113.16
2023-04-17T09:55:37.957Z,102117.34
2023-04-17T09:58:07.365Z,102116.94
2023-04-17T10:00:36.949Z,102123.31
2023-04-17T10:03:04.987Z,102111.94
2023-04-17T10:05:33.005Z,102106.75
2023-04-17T10:08:02.453Z,102107.28
2023-04-17T10:10:33.189Z,102121.53
2023-04-17T10:13:02.564Z,102130.06
2023-04-17T10:15:30.780Z,102111.50
2023-04-17T10:18:20.177Z,102096.63
2023-04-17T10:20:48.744Z,102103.41
2023-04-17T10:23:33.931Z,102090.34
2023-04-17T10:26:38.951Z,102087.84
2023-04-17T10:29:06.709Z,102113.38
2023-04-17T10:32:25.928Z,102099.31
2023-04-17T10:34:54.724Z,102101.66
2023-04-17T10:37:25.392Z,102094.75
2023-04-17T10:39:56.970Z,102092.81
2023-04-17T10:42:25.672Z,102095.47
2023-04-17T10:44:58.346Z,102086.34
2023-04-17T10:47:33.073Z,102088.59
2023-04-17T10:50:03.395Z,102086.09
2023-04-17T10:52:43.512Z,102078.06
2023-04-17T10:55:17.994Z,102087.97
2023-04-17T10:58:00.812Z,102081.25
2023-04-17T11:00:31.643Z,102085.97
2023-04-17T11:02:59.512Z,102079.38
2023-04-17T11:05:27.409Z,102085.06
2023-04-17T11:07:55.177Z,102078.72
2023-04-17T11:10:24.386Z,102080.22
2023-04-17T11:12:56.564Z,102080.19
2023-04-17T11:15:28.751Z,102082.91
2023-04-17T11:17:57.062Z,102078.69
2023-04-17T11:20:25.794Z,102075.09
2023-04-17T11:22:53.842Z,102074.50
2023-04-17T11:25:27.214Z,102071.75
2023-04-17T11:27:58.890Z,102072.16
2023-04-17T11:30:28.712Z,102063.25
2023-04-17T11:32:58.813Z,102067.97
2023-04-17T11:35:31.103Z,102061.69
2023-04-17T11:38:22.893Z,102071.22
2023-04-17T11:40:53.703Z,102046.91
2023-04-17T11:43:22.562Z,102082.63
2023-04-17T11:45:51.747Z,102051.38
2023-04-17T11:48:23.433Z,102057.06
2023-04-17T11:50:55.659Z,102062.06
2023-04-17T11:53:23.515Z,102057.03
2023-04-17T11:56:11.971Z,102062.72
2023-04-17T11:58:46.680Z,102064.88
2023-04-17T12:01:14.445Z,102053.94
2023-04-17T12:03:45.321Z,102047.00
2023-04-17T12:06:13.321Z,102043.38
2023-04-17T12:08:50.199Z,102039.81
2023-04-17T12:11:24.975Z,102058.03
2023-04-17T12:13:53.100Z,102058.78
2023-04-17T12:16:20.890Z,102055.78
2023-04-17T12:18:48.807Z,102067.13
2023-04-17T12:21:16.483Z,102057.94
2023-04-17T12:23:44.235Z,102051.47
2023-04-17T12:26:12.032Z,102038.97
2023-04-17T12:28:41.103Z,102045.56
2023-04-17T12:31:08.870Z,102047.38
2023-04-17T12:33:36.596Z,102042.84
2023-04-17T12:36:06.499Z,102049.94
2023-04-17T12:38:34.303Z,102032.63
2023-04-17T12:41:02.102Z,102044.69
2023-04-17T12:43:29.817Z,102045.13
2023-04-17T12:45:58.896Z,102034.63
2023-04-17T12:48:26.853Z,102029.34
2023-04-17T12:50:54.654Z,102028.75
2023-04-17T12:53:22.462Z,102038.38
2023-04-17T12:55:50.515Z,102047.00
2023-04-17T12:58:18.309Z,102036.38
2023-04-17T13:00:46.513Z,102047.03
2023-04-17T13:03:16.028Z,102026.75
2023-04-17T13:05:44.459Z,102025.03
2023-04-17T13:08:15.044Z,102032.38
2023-04-17T13:10:42.870Z,102048.22
2023-04-17T13:13:10.963Z,102032.88
2023-04-17T13:15:38.810Z,102027.50
2023-04-17T13:18:06.659Z,102015.34
2023-04-17T13:20:35.859Z,102018.94
2023-04-17T13:23:03.621Z,102011.88
2023-04-17T13:25:31.548Z,102004.19
2023-04-17T13:27:59.338Z,102016.47
2023-04-17T13:30:27.258Z,102020.88
2023-04-17T13:32:55.049Z,102008.69
2023-04-17T13:35:22.792Z,102006.66
2023-04-17T13:37:51.866Z,102017.59
2023-04-17T13:40:19.799Z,101995.13
2023-04-17T13:42:47.553Z,102009.94
2023-04-17T13:45:16.040Z,101994.97
2023-04-17T13:47:44.678Z,101993.44
2023-04-17T13:50:13.676Z,101981.44
2023-04-17T13:52:41.405Z,101976.88
2023-04-17T13:55:14.638Z,101975.75
2023-04-17T13:57:42.629Z,101968.50
2023-04-17T14:00:11.731Z,101966.47
2023-04-17T14:02:39.623Z,101967.16
2023-04-17T14:05:08.152Z,101973.00
2023-04-17T14:07:35.866Z,101970.94
2023-04-17T14:10:04.062Z,101972.38
2023-04-17T14:12:33.101Z,101957.00
2023-04-17T14:15:00.780Z,101950.94
2023-04-17T14:17:28.614Z,101947.34
2023-04-17T14:19:56.393Z,101949.16
2023-04-17T14:22:24.158Z,101949.44
2023-04-17T14:24:51.965Z,101952.28
2023-04-17T14:27:19.748Z,101938.94
2023-04-17T14:29:48.830Z,101947.09
2023-04-17T14:32:16.628Z,101950.19
2023-04-17T14:34:44.371Z,101935.25
2023-04-17T14:37:12.089Z,101931.38
2023-04-17T14:39:39.768Z,101944.25
2023-04-17T14:42:07.533Z,101945.78
2023-04-17T14:44:35.293Z,101942.91
2023-04-17T14:47:04.969Z,101937.66
2023-04-17T14:49:32.853Z,101929.91
2023-04-17T14:52:00.528Z,101920.31
2023-04-17T14:54:28.285Z,101934.03
2023-04-17T14:56:55.982Z,101937.16
2023-04-17T14:59:23.783Z,101928.91
2023-04-17T15:01:51.570Z,101927.28
2023-04-17T15:04:21.124Z,101919.56
2023-04-17T15:06:49.214Z,101933.59
2023-04-17T15:09:16.896Z,101921.41
2023-04-17T15:11:44.620Z,101927.47
2023-04-17T15:14:12.334Z,101911.47
2023-04-17T15:16:40.161Z,101917.56
2023-04-17T15:19:07.873Z,101916.91
2023-04-17T15:21:36.963Z,101914.25
2023-04-17T15:24:05.163Z,101910.81
2023-04-17T15:26:33.118Z,101907.13
2023-04-17T15:29:01.515Z,101910.25
2023-04-17T15:31:29.212Z,101920.13
2023-04-17T15:33:56.964Z,101917.34
2023-04-17T15:36:31.250Z,101915.91
2023-04-17T15:39:00.842Z,101915.91
2023-04-17T15:41:28.619Z,101910.47
2023-04-17T15:43:56.696Z,101897.88
2023-04-17T15:46:24.561Z,101891.19
2023-04-17T15:49:07.576Z,101910.63
2023-04-17T15:51:35.745Z,101897.31
2023-04-17T15:54:05.033Z,101895.78
2023-04-17T15:56:32.735Z,101898.16
2023-04-17T15:59:00.486Z,101892.75
2023-04-17T16:01:28.747Z,101878.22
2023-04-17T16:03:56.637Z,101894.84
2023-04-17T16:06:24.480Z,101886.47
2023-04-17T16:08:52.274Z,101909.91
2023-04-17T16:11:21.433Z,101901.16
2023-04-17T16:13:49.165Z,101899.13
2023-04-17T16:16:16.960Z,101892.38
2023-04-17T16:18:46.960Z,101899.22
2023-04-17T16:21:15.166Z,101902.44
2023-04-17T16:23:44.282Z,101899.13
2023-04-17T16:26:12.060Z,101896.19
2023-04-17T16:28:41.157Z,101896.16
2023-04-17T16:31:09.729Z,101902.09
2023-04-17T16:33:37.405Z,101891.31
2023-04-17T16:36:05.482Z,101894.84
2023-04-17T16:38:35.448Z,101896.75
2023-04-17T16:41:04.241Z,101895.41
2023-04-17T16:43:31.930Z,101900.09
2023-04-17T16:46:05.460Z,101894.28
2023-04-17T16:48:36.283Z,101898.16
2023-04-17T16:51:05.153Z,101887.06
2023-04-17T16:53:33.182Z,101887.44
2023-04-17T16:56:00.965Z,101896.56
2023-04-17T16:58:28.902Z,101888.66
2023-04-17T17:00:56.962Z,101897.81
2023-04-17T17:03:26.056Z,101899.97
2023-04-17T17:05:55.113Z,101894.97
2023-04-17T17:08:22.856Z,101898.69
2023-04-17T17:10:51.013Z,101889.31
2023-04-17T17:13:18.785Z,101898.59
2023-04-17T17:15:46.466Z,101910.09
2023-04-17T17:18:14.233Z,101896.34
2023-04-17T17:20:43.295Z,101908.19
2023-04-17T17:23:10.970Z,101908.91
2023-04-17T17:25:38.765Z,101908.31
2023-04-17T17:28:06.521Z,101918.53
2023-04-17T17:30:34.249Z,101915.31
2023-04-17T17:33:02.055Z,101923.91
2023-04-17T17:35:29.799Z,101914.81
2023-04-17T17:37:58.932Z,101902.69
2023-04-17T17:40:26.671Z,101920.53
2023-04-17T17:42:54.437Z,101905.25
2023-04-17T17:45:22.174Z,101907.66
2023-04-17T17:47:50.029Z,101909.13
2023-04-17T17:50:18.150Z,101910.75
2023-04-17T17:52:45.919Z,101910.59
2023-04-17T17:55:16.645Z,101925.06
2023-04-17T17:57:49.482Z,101917.63
2023-04-17T18:00:18.106Z,101911.19
2023-04-17T18:02:46.092Z,101912.97
2023-04-17T18:05:13.958Z,101912.97
2023-04-17T18:07:43.204Z,101909.22
2023-04-17T18:10:11.562Z,101927.41
2023-04-17T18:12:40.816Z,101924.91
2023-04-17T18:15:09.768Z,101913.16
2023-04-17T18:17:37.525Z,101911.47
2023-04-17T18:20:05.623Z,101920.06
2023-04-17T18:22:33.359Z,101931.25
2023-04-17T18:25:01.076Z,101919.25
2023-04-17T18:27:28.935Z,101924.00
2023-04-17T18:29:59.134Z,101924.78
2023-04-17T18:32:26.851Z,101932.72
2023-04-17T18:34:54.618Z,101920.72
2023-04-17T18:37:22.363Z,101920.69
2023-04-17T18:39:50.223Z,101928.09
2023-04-17T18:42:17.981Z,101939.28
2023-04-17T18:44:45.721Z,101934.22
2023-04-17T18:47:14.876Z,101949.56
2023-04-17T18:49:42.609Z,101943.50
2023-04-17T18:52:10.369Z,101961.44
2023-04-17T18:54:38.031Z,101949.88
2023-04-17T18:57:05.827Z,101945.25
2023-04-17T18:59:33.825Z,101955.38
2023-04-17T19:02:01.662Z,101955.09
2023-04-17T19:04:30.850Z,101948.69
2023-04-17T19:06:58.770Z,101949.25
2023-04-17T19:09:26.717Z,101951.09
2023-04-17T19:11:55.085Z,101968.44
2023-04-17T19:14:22.820Z,101962.84
2023-04-17T19:16:50.659Z,101959.09
2023-04-17T19:19:18.411Z,101953.25
2023-04-17T19:21:47.451Z,101968.22
2023-04-17T19:24:16.049Z,101969.16
2023-04-17T19:26:43.778Z,101969.44
2023-04-17T19:29:11.810Z,101959.69
2023-04-17T19:31:40.436Z,101971.66
2023-04-17T19:34:08.597Z,101971.75
2023-04-17T19:36:36.366Z,101972.09
2023-04-17T19:39:05.419Z,101976.88
2023-04-17T19:41:33.192Z,101971.56
2023-04-17T19:44:00.902Z,101979.81
2023-04-17T19:46:29.275Z,101982.41
2023-04-17T19:48:57.108Z,101992.63
2023-04-17T19:51:24.813Z,101998.78
2023-04-17T19:53:53.548Z,101990.75
2023-04-17T19:56:22.671Z,101995.06
2023-04-17T19:58:50.413Z,101984.53
2023-04-17T20:01:18.154Z,101980.59
2023-04-17T20:03:46.118Z,101984.72
2023-04-17T20:06:14.610Z,102005.81
2023-04-17T20:08:42.329Z,102000.47
2023-04-17T20:11:12.111Z,101989.31
2023-04-17T20:13:41.361Z,102003.72
2023-04-17T20:16:09.593Z,101999.41
2023-04-17T20:18:37.984Z,102003.09
2023-04-17T20:21:06.384Z,102005.53
2023-04-17T20:23:34.202Z,102023.63
2023-04-17T20:26:03.308Z,102006.38
2023-04-17T20:28:31.148Z,102013.06
2023-04-17T20:31:00.278Z,102008.38
2023-04-17T20:33:28.069Z,102011.94
2023-04-17T20:35:55.788Z,102026.38
2023-04-17T20:38:23.517Z,102013.25
2023-04-17T20:40:51.192Z,102009.75
2023-04-17T20:43:19.025Z,102019.97
2023-04-17T20:45:48.364Z,102023.03
2023-04-17T20:48:17.634Z,102021.94
2023-04-17T20:50:45.443Z,102035.84
2023-04-17T20:53:13.131Z,102022.88
2023-04-17T20:55:40.815Z,102025.84
2023-04-17T20:58:08.559Z,102021.22
2023-04-17T21:00:38.447Z,102015.81
2023-04-17T21:03:07.888Z,102037.25
2023-04-17T21:05:37.121Z,102020.19
2023-04-17T21:08:04.903Z,102028.91
2023-04-17T21:10:32.617Z,102024.09
2023-04-17T21:13:00.382Z,102021.34
2023-04-17T21:15:28.248Z,102027.34
2023-04-17T21:17:56.004Z,102030.44
2023-04-17T21:20:23.893Z,102039.22
2023-04-17T21:22:53.013Z,102041.56
2023-04-17T21:25:20.723Z,102030.56
2023-04-17T21:27:48.430Z,102027.00
2023-04-17T21:30:16.690Z,102029.38
2023-04-17T21:32:44.488Z,102045.59
2023-04-17T21:35:12.291Z,102042.63
2023-04-17T21:37:40.363Z,102042.94
2023-04-17T21:40:10.906Z,102044.78
2023-04-17T21:42:38.650Z,102056.50
2023-04-17T21:45:07.650Z,102054.56
2023-04-17T21:47:35.629Z,102058.56
2023-04-17T21:50:03.468Z,102059.50
2023-04-17T21:52:31.230Z,102060.00
2023-04-17T21:55:03.148Z,102059.28
2023-04-17T21:57:32.527Z,102056.28
2023-04-17T22:00:00.408Z,102055.94
2023-04-17T22:02:28.222Z,102069.28
2023-04-17T22:04:56.071Z,102065.13
2023-04-17T22:07:24.180Z,102057.72
2023-04-17T22:09:51.895Z,102075.84
2023-04-17T22:12:20.676Z,102073.44
2023-04-17T22:14:50.272Z,102069.00
2023-04-17T22:17:18.043Z,102059.13
2023-04-17T22:19:45.786Z,102063.59
2023-04-17T22:22:13.507Z,102063.50
2023-04-17T22:24:42.527Z,102064.03
2023-04-17T22:27:10.335Z,102063.25
2023-04-17T22:29:38.063Z,102065.41
2023-04-17T22:32:07.407Z,102066.88
2023-04-17T22:34:35.117Z,102065.66
2023-04-17T22:37:02.831Z,102058.84
2023-04-17T22:39:31.055Z,102067.81
2023-04-17T22:41:58.778Z,102054.31
2023-04-17T22:44:26.498Z,102070.34
2023-04-17T22:46:54.206Z,102071.78
2023-04-17T22:49:24.063Z,102060.72
2023-04-17T22:51:51.909Z,102058.91
2023-04-17T22:54:23.119Z,102073.53
2023-04-17T22:56:51.159Z,102069.28
2023-04-17T22:59:18.911Z,102067.78
2023-04-17T23:01:46.650Z,102061.09
2023-04-17T23:04:14.674Z,102064.13
2023-04-17T23:06:44.026Z,102072.25
2023-04-17T23:09:12.158Z,102071.56
2023-04-17T23:11:39.885Z,102074.63
2023-04-17T23:14:07.843Z,102081.03
2023-04-17T23:16:35.662Z,102070.66
2023-04-17T23:19:03.379Z,102074.78
2023-04-17T23:21:31.328Z,102068.91
2023-04-17T23:24:00.388Z,102065.94
2023-04-17T23:26:28.059Z,102066.63
2023-04-17T23:28:55.767Z,102075.34
2023-04-17T23:31:23.509Z,102070.28
2023-04-17T23:33:51.240Z,102070.84
2023-04-17T23:36:19.079Z,102074.03
2023-04-17T23:38:46.793Z,102076.75
2023-04-17T23:41:15.949Z,102074.28
2023-04-17T23:43:43.655Z,102068.84
2023-04-17T23:46:11.359Z,102065.03
2023-04-17T23:48:39.170Z,102071.47
2023-04-17T23:51:06.924Z,102068.44
2023-04-17T23:53:34.849Z,102061.97
2023-04-17T23:56:02.530Z,102074.19
2023-04-17T23:58:31.668Z,102063.41
